Ben-my-chree — MXLG6 — position and weather

sailwx.info

Track history (hours):
 
Tides and Currents Weather Stations Pressure Air Temp Water Temp Dewpoint Dewpoint Depression Visibility Wind Speed Wind Dir Waves Ship Positions

Ben-my-chree

Operator: The Isle of Man Steam Packet Co Ltd

Last reported at 2017-Jul-21 02:30 UTC. Time now 2017-Jul-21 02:30 UTC.
Position N 53°57' W 003°35'.

Length 120 m; draft 5 m.

Type: Passenger vessel. MMSI: 234983000.

Date/timePositionNaut miles runAvg speedWind from/ knotsBaromVisibWave heightAir tempDewpointWater temp
2017-Jul-21 02:30N 53°57' W 003°35'1318.0
2017-Jul-21 01:46N 53°56' W 003°13'519.4
2017-Jul-21 01:30N 53°58' W 003°04'2 0.5
2017-Jul-20 21:33N 53°57' W 003°07'117.6
2017-Jul-20 21:30N 53°56' W 003°08'917.4
2017-Jul-20 21:00N 53°55' W 003°23'917.4
2017-Jul-20 20:30N 53°58' W 003°37'31 8.1
2017-Jul-20 16:37N 54°09' W 004°27'215.0
2017-Jul-20 16:30N 54°09' W 004°24'1016.9
2017-Jul-20 15:53N 54°05' W 004°08'817.0
2017-Jul-20 15:27N 54°02' W 003°56'2616.9
2017-Jul-20 13:55N 53°56' W 003°13'4 1.0
2017-Jul-20 10:25N 53°56' W 003°07'716.9
2017-Jul-20 10:00N 53°56' W 003°19'817.1
2017-Jul-20 09:30N 53°57' W 003°34'34 6.5
2017-Jul-20 04:17N 54°09' W 004°27'515.2
2017-Jul-20 03:58N 54°08' W 004°19'3215.9
2017-Jul-20 01:57N 53°55' W 003°28'1015.6
2017-Jul-20 01:17N 53°56' W 003°10'2 0.5
2017-Jul-19 21:24N 53°56' W 003°08'716.9
2017-Jul-19 20:59N 53°55' W 003°19'817.3
2017-Jul-19 20:30N 53°57' W 003°33'31 6.6
2017-Jul-19 15:53N 54°08' W 004°22'1217.2
2017-Jul-19 15:10N 54°03' W 004°02'417.5
2017-Jul-19 14:54N 54°02' W 003°55'1717.8
2017-Jul-19 13:58N 53°56' W 003°29'1017.8
2017-Jul-19 13:25N 53°56' W 003°12'3 1.2
2017-Jul-19 10:28N 53°57' W 003°07'715.7
2017-Jul-19 09:59N 53°56' W 003°19'715.6
2017-Jul-19 09:30N 53°56' W 003°32'35 6.9
2017-Jul-19 04:31N 54°09' W 004°26'217.3
2017-Jul-19 04:24N 54°09' W 004°23'717.1
2017-Jul-19 03:58N 54°06' W 004°11'1016.9
2017-Jul-19 03:23N 54°02' W 003°56'1117.3
2017-Jul-19 02:45N 53°58' W 003°39'617.4
2017-Jul-19 02:24N 53°56' W 003°29'917.2
2017-Jul-19 01:52N 53°56' W 003°13'4 1.0
2017-Jul-18 21:45N 53°57' W 003°06'615.9
2017-Jul-18 21:23N 53°55' W 003°16'616.1
2017-Jul-18 21:00N 53°56' W 003°27'815.8
2017-Jul-18 20:30N 53°58' W 003°40'816.4
2017-Jul-18 20:00N 54°01' W 003°52'22 6.5
2017-Jul-18 16:41N 54°09' W 004°26'517.5
2017-Jul-18 16:26N 54°08' W 004°19'917.4
2017-Jul-18 15:54N 54°04' W 004°05'717.1
2017-Jul-18 15:30N 54°01' W 003°54'917.0
2017-Jul-18 14:59N 53°59' W 003°40'1716.9
2017-Jul-18 14:00N 53°56' W 003°12'12 4.2
2017-Jul-18 11:15N 54°02' W 002°56'714.9
2017-Jul-18 10:48N 53°58' W 003°04'516.4
2017-Jul-18 10:30N 53°56' W 003°12'817.0
2017-Jul-18 10:00N 53°56' W 003°26'816.6
2017-Jul-18 09:30N 53°58' W 003°40'916.9
2017-Jul-18 08:59N 54°01' W 003°54'1016.7
2017-Jul-18 08:25N 54°04' W 004°09'1216.7
2017-Jul-18 07:42N 54°09' W 004°28'0 1.2
2017-Jul-18 07:26N 54°09' W 004°28'0 0.0
2017-Jul-18 06:56N 54°09' W 004°28'0 0.0
2017-Jul-18 06:29N 54°09' W 004°28'0 0.0
2017-Jul-18 05:26N 54°09' W 004°28'0 0.0
2017-Jul-18 04:56N 54°09' W 004°28'4 8.5
2017-Jul-18 04:30N 54°08' W 004°22'917.4
2017-Jul-18 04:00N 54°05' W 004°08'817.1
2017-Jul-18 03:30N 54°02' W 003°55'917.3
2017-Jul-18 03:00N 53°59' W 003°41'917.0
2017-Jul-18 02:30N 53°56' W 003°27'816.8
2017-Jul-18 02:00N 53°56' W 003°13'816.8
2017-Jul-18 01:30N 53°59' W 003°00'4 1.3
2017-Jul-17 22:31N 54°02' W 002°55'0 7.3
2017-Jul-17 22:30N 54°02' W 002°56'814.9
2017-Jul-17 21:59N 53°57' W 003°06'816.8
2017-Jul-17 21:30N 53°55' W 003°19'817.1
2017-Jul-17 21:00N 53°57' W 003°34'917.2
2017-Jul-17 20:30N 53°60' W 003°47'26 8.0
2017-Jul-17 17:17N 54°09' W 004°28'1 4.5
2017-Jul-17 17:00N 54°09' W 004°26'917.6
2017-Jul-17 16:30N 54°06' W 004°12'817.0
2017-Jul-17 16:00N 54°03' W 003°59'816.6
2017-Jul-17 15:30N 53°60' W 003°46'816.7
2017-Jul-17 15:00N 53°57' W 003°33'1016.1
2017-Jul-17 14:22N 53°56' W 003°15'615.9
2017-Jul-17 13:57N 53°58' W 003°04'2 0.5
2017-Jul-17 11:03N 53°57' W 003°07'117.2
2017-Jul-17 11:00N 53°56' W 003°08'917.4
2017-Jul-17 10:29N 53°55' W 003°24'817.1
2017-Jul-17 10:00N 53°57' W 003°37'30 5.4
2017-Jul-17 04:34N 54°08' W 004°23'617.7
2017-Jul-17 04:14N 54°06' W 004°14'717.3
2017-Jul-17 03:51N 54°04' W 004°04'617.0
2017-Jul-17 03:30N 54°01' W 003°54'1616.6
2017-Jul-17 02:33N 53°56' W 003°29'116.6
2017-Jul-17 02:30N 53°56' W 003°28'916.3
2017-Jul-17 01:56N 53°56' W 003°12'715.5
2017-Jul-17 01:30N 53°58' W 003°02'4 0.9
2017-Jul-16 21:28N 53°57' W 003°07'917.2
2017-Jul-16 20:57N 53°55' W 003°22'716.9
2017-Jul-16 20:30N 53°57' W 003°35'917.1
2017-Jul-16 20:00N 53°60' W 003°48'817.0
2017-Jul-16 19:30N 54°03' W 004°02'16 6.1
2017-Jul-16 16:51N 54°09' W 004°27'2017.2
2017-Jul-16 15:39N 54°02' W 003°55'1216.6
2017-Jul-16 14:57N 53°58' W 003°37'1516.0
2017-Jul-16 14:02N 53°56' W 003°12'016.5
2017-Jul-16 14:00N 53°56' W 003°11'3 0.9
2017-Jul-16 10:38N 53°57' W 003°06'217.1
2017-Jul-16 10:30N 53°56' W 003°10'917.5
2017-Jul-16 10:00N 53°56' W 003°25'1017.0
2017-Jul-16 09:26N 53°58' W 003°40'49 7.8
2017-Jul-16 03:04N 54°31' W 004°43'118.5
2017-Jul-16 03:00N 54°32' W 004°45'918.4
2017-Jul-16 02:31N 54°35' W 004°59'918.4
2017-Jul-16 02:01N 54°39' W 005°14'918.8
2017-Jul-16 01:31N 54°43' W 005°29'917.8
2017-Jul-16 01:01N 54°42' W 005°45'714.2
2017-Jul-16 00:30N 54°37' W 005°54'1 0.8
2017-Jul-15 23:47N 54°37' W 005°55'0 0.0
2017-Jul-15 23:30N 54°37' W 005°55'4 7.0
2017-Jul-15 23:00N 54°39' W 005°51'815.8
2017-Jul-15 22:30N 54°43' W 005°39'713.9
2017-Jul-15 22:00N 54°40' W 005°28'816.8
2017-Jul-15 21:30N 54°33' W 005°20'917.1
2017-Jul-15 21:00N 54°26' W 005°13'917.0
2017-Jul-15 20:30N 54°18' W 005°06'917.2
2017-Jul-15 20:00N 54°11' W 004°59'1415.9
2017-Jul-15 19:09N 54°02' W 004°40'5210.2
2017-Jul-15 14:00N 53°56' W 003°12'714.8
2017-Jul-15 13:30N 53°59' W 003°01'4 1.5
2017-Jul-15 10:32N 53°57' W 003°07'117.9
2017-Jul-15 10:29N 53°56' W 003°08'917.9
2017-Jul-15 10:00N 53°55' W 003°23'917.3
2017-Jul-15 09:30N 53°57' W 003°37'29 5.8
2017-Jul-15 04:28N 54°09' W 004°24'1817.7
2017-Jul-15 03:25N 54°01' W 003°55'1117.0
2017-Jul-15 02:47N 53°58' W 003°37'1516.3
2017-Jul-15 01:52N 53°56' W 003°12'615.5
2017-Jul-15 01:30N 53°58' W 003°03'3 0.9
2017-Jul-14 21:41N 53°56' W 003°08'317.8
2017-Jul-14 21:30N 53°56' W 003°14'917.9
2017-Jul-14 21:00N 53°56' W 003°29'37 8.4
2017-Jul-14 16:37N 54°09' W 004°27'216.2
2017-Jul-14 16:30N 54°09' W 004°24'1118.2
2017-Jul-14 15:53N 54°05' W 004°07'717.7
2017-Jul-14 15:30N 54°02' W 003°56'1517.3
2017-Jul-14 14:37N 53°56' W 003°31'1116.8
2017-Jul-14 13:56N 53°56' W 003°12'715.6
2017-Jul-14 13:29N 53°59' W 003°01'5 1.5
2017-Jul-14 10:30N 53°56' W 003°08'1018.4
2017-Jul-14 09:59N 53°56' W 003°24'39 7.2
2017-Jul-14 04:35N 54°09' W 004°26'717.9
2017-Jul-14 04:10N 54°06' W 004°14'2817.6
2017-Jul-14 02:34N 53°56' W 003°29'117.1
2017-Jul-14 02:30N 53°56' W 003°27'917.0
2017-Jul-14 01:58N 53°56' W 003°12'716.0
2017-Jul-14 01:30N 53°59' W 003°01'4 1.1
2017-Jul-13 21:34N 53°56' W 003°07'118.1
2017-Jul-13 21:30N 53°56' W 003°09'918.1
2017-Jul-13 21:01N 53°56' W 003°24'917.5
2017-Jul-13 20:30N 53°58' W 003°38'25 5.9
2017-Jul-13 16:16N 54°07' W 004°18'1118.3
2017-Jul-13 15:40N 54°03' W 004°00'417.6
2017-Jul-13 15:24N 54°01' W 003°53'917.4
2017-Jul-13 14:55N 53°58' W 003°39'717.4
2017-Jul-13 14:30N 53°56' W 003°28'1017.4
2017-Jul-13 13:57N 53°56' W 003°12'12 3.9
2017-Jul-13 10:57N 54°02' W 002°55'818.0
2017-Jul-13 10:29N 53°57' W 003°07'1118.9
2017-Jul-13 09:53N 53°56' W 003°26'718.4
2017-Jul-13 09:30N 53°58' W 003°37'1017.9
2017-Jul-13 08:56N 54°01' W 003°54'21 4.8
2017-Jul-13 04:28N 54°09' W 004°28'817.3
2017-Jul-13 04:00N 54°06' W 004°15'1118.5
2017-Jul-13 03:26N 54°02' W 003°58'1818.2
2017-Jul-13 02:25N 53°56' W 003°29'1018.1
2017-Jul-13 01:52N 53°56' W 003°12'717.4
2017-Jul-13 01:30N 53°58' W 003°02'5 5.1
2017-Jul-13 00:26N 54°02' W 002°55'0 0.0
2017-Jul-12 23:56N 54°02' W 002°55'0 0.1
2017-Jul-12 22:04N 54°02' W 002°55'0 1.2
2017-Jul-12 22:00N 54°02' W 002°55'816.4
2017-Jul-12 21:30N 53°57' W 003°06'918.1
2017-Jul-12 21:00N 53°56' W 003°21'917.6
2017-Jul-12 20:30N 53°57' W 003°36'917.5
2017-Jul-12 20:00N 54°00' W 003°50'817.1
2017-Jul-12 19:31N 54°03' W 004°03'917.1
2017-Jul-12 19:00N 54°06' W 004°17'714.1
2017-Jul-12 18:30N 54°09' W 004°28'0 0.0
2017-Jul-12 17:58N 54°09' W 004°28'0 0.0
2017-Jul-12 17:25N 54°09' W 004°28'0 0.0
2017-Jul-12 16:58N 54°09' W 004°28'2 3.6
2017-Jul-12 16:29N 54°09' W 004°25'918.4
2017-Jul-12 16:00N 54°05' W 004°12'918.2
2017-Jul-12 15:30N 54°02' W 003°57'1618.3
2017-Jul-12 14:37N 53°56' W 003°31'1118.1
2017-Jul-12 13:59N 53°56' W 003°12'3 0.9
2017-Jul-12 10:27N 53°57' W 003°07'919.2
2017-Jul-12 10:00N 53°55' W 003°22'918.4
2017-Jul-12 09:30N 53°58' W 003°37'32 6.4
2017-Jul-12 04:28N 54°09' W 004°28'816.7
2017-Jul-12 04:01N 54°07' W 004°15'1818.5
2017-Jul-12 03:03N 53°60' W 003°47'718.8
2017-Jul-12 02:41N 53°57' W 003°36'518.6
2017-Jul-12 02:26N 53°56' W 003°29'1018.8
2017-Jul-12 01:54N 53°56' W 003°12'718.3
2017-Jul-12 01:31N 53°59' W 003°01'5 1.3
2017-Jul-11 22:05N 54°02' W 002°55'817.3
2017-Jul-11 21:35N 53°57' W 003°07'219.4
2017-Jul-11 21:30N 53°56' W 003°09'1018.3
2017-Jul-11 20:57N 53°56' W 003°26'38 8.3
2017-Jul-11 16:22N 54°09' W 004°28'818.1
2017-Jul-11 15:57N 54°06' W 004°15'1018.6
2017-Jul-11 15:25N 54°02' W 004°00'2218.6
2017-Jul-11 14:16N 53°55' W 003°26'718.9
2017-Jul-11 13:55N 53°56' W 003°15'818.7
2017-Jul-11 13:30N 53°58' W 003°02'5 2.1
2017-Jul-11 10:57N 54°02' W 002°56'819.0
2017-Jul-11 10:30N 53°57' W 003°07'1018.6
2017-Jul-11 09:59N 53°55' W 003°24'917.0
2017-Jul-11 09:26N 53°58' W 003°39'26 4.9
2017-Jul-11 04:06N 54°07' W 004°20'318.6
2017-Jul-11 03:57N 54°06' W 004°15'  
Track history (hours):
 
Tides and Currents Weather Stations Pressure Air Temp Water Temp Dewpoint Dewpoint Depression Visibility Wind Speed Wind Dir Waves Ship Positions

Ben-my-chree

Operator: The Isle of Man Steam Packet Co Ltd

Last reported at 2017-Jul-21 02:30 UTC. Time now 2017-Jul-21 02:30 UTC.
Position N 53°57' W 003°35'.

Length 120 m; draft 5 m.

Type: Passenger vessel. MMSI: 234983000.

Date/timePositionNaut miles runAvg speedWind from/ knotsBaromVisibWave heightAir tempDewpointWater temp
2017-Jul-21 02:30N 53°57' W 003°35'1318.0
2017-Jul-21 01:46N 53°56' W 003°13'519.4
2017-Jul-21 01:30N 53°58' W 003°04'2 0.5
2017-Jul-20 21:33N 53°57' W 003°07'117.6
2017-Jul-20 21:30N 53°56' W 003°08'917.4
2017-Jul-20 21:00N 53°55' W 003°23'917.4
2017-Jul-20 20:30N 53°58' W 003°37'31 8.1
2017-Jul-20 16:37N 54°09' W 004°27'215.0
2017-Jul-20 16:30N 54°09' W 004°24'1016.9
2017-Jul-20 15:53N 54°05' W 004°08'817.0
2017-Jul-20 15:27N 54°02' W 003°56'2616.9
2017-Jul-20 13:55N 53°56' W 003°13'4 1.0
2017-Jul-20 10:25N 53°56' W 003°07'716.9
2017-Jul-20 10:00N 53°56' W 003°19'817.1
2017-Jul-20 09:30N 53°57' W 003°34'34 6.5
2017-Jul-20 04:17N 54°09' W 004°27'515.2
2017-Jul-20 03:58N 54°08' W 004°19'3215.9
2017-Jul-20 01:57N 53°55' W 003°28'1015.6
2017-Jul-20 01:17N 53°56' W 003°10'2 0.5
2017-Jul-19 21:24N 53°56' W 003°08'716.9
2017-Jul-19 20:59N 53°55' W 003°19'817.3
2017-Jul-19 20:30N 53°57' W 003°33'31 6.6
2017-Jul-19 15:53N 54°08' W 004°22'1217.2
2017-Jul-19 15:10N 54°03' W 004°02'417.5
2017-Jul-19 14:54N 54°02' W 003°55'1717.8
2017-Jul-19 13:58N 53°56' W 003°29'1017.8
2017-Jul-19 13:25N 53°56' W 003°12'3 1.2
2017-Jul-19 10:28N 53°57' W 003°07'715.7
2017-Jul-19 09:59N 53°56' W 003°19'715.6
2017-Jul-19 09:30N 53°56' W 003°32'35 6.9
2017-Jul-19 04:31N 54°09' W 004°26'217.3
2017-Jul-19 04:24N 54°09' W 004°23'717.1
2017-Jul-19 03:58N 54°06' W 004°11'1016.9
2017-Jul-19 03:23N 54°02' W 003°56'1117.3
2017-Jul-19 02:45N 53°58' W 003°39'617.4
2017-Jul-19 02:24N 53°56' W 003°29'917.2
2017-Jul-19 01:52N 53°56' W 003°13'4 1.0
2017-Jul-18 21:45N 53°57' W 003°06'615.9
2017-Jul-18 21:23N 53°55' W 003°16'616.1
2017-Jul-18 21:00N 53°56' W 003°27'815.8
2017-Jul-18 20:30N 53°58' W 003°40'816.4
2017-Jul-18 20:00N 54°01' W 003°52'22 6.5
2017-Jul-18 16:41N 54°09' W 004°26'517.5
2017-Jul-18 16:26N 54°08' W 004°19'917.4
2017-Jul-18 15:54N 54°04' W 004°05'717.1
2017-Jul-18 15:30N 54°01' W 003°54'917.0
2017-Jul-18 14:59N 53°59' W 003°40'1716.9
2017-Jul-18 14:00N 53°56' W 003°12'12 4.2
2017-Jul-18 11:15N 54°02' W 002°56'714.9
2017-Jul-18 10:48N 53°58' W 003°04'516.4
2017-Jul-18 10:30N 53°56' W 003°12'817.0
2017-Jul-18 10:00N 53°56' W 003°26'816.6
2017-Jul-18 09:30N 53°58' W 003°40'916.9
2017-Jul-18 08:59N 54°01' W 003°54'1016.7
2017-Jul-18 08:25N 54°04' W 004°09'1216.7
2017-Jul-18 07:42N 54°09' W 004°28'0 1.2
2017-Jul-18 07:26N 54°09' W 004°28'0 0.0
2017-Jul-18 06:56N 54°09' W 004°28'0 0.0
2017-Jul-18 06:29N 54°09' W 004°28'0 0.0
2017-Jul-18 05:26N 54°09' W 004°28'0 0.0
2017-Jul-18 04:56N 54°09' W 004°28'4 8.5
2017-Jul-18 04:30N 54°08' W 004°22'917.4
2017-Jul-18 04:00N 54°05' W 004°08'817.1
2017-Jul-18 03:30N 54°02' W 003°55'917.3
2017-Jul-18 03:00N 53°59' W 003°41'917.0
2017-Jul-18 02:30N 53°56' W 003°27'816.8
2017-Jul-18 02:00N 53°56' W 003°13'816.8
2017-Jul-18 01:30N 53°59' W 003°00'4 1.3
2017-Jul-17 22:31N 54°02' W 002°55'0 7.3
2017-Jul-17 22:30N 54°02' W 002°56'814.9
2017-Jul-17 21:59N 53°57' W 003°06'816.8
2017-Jul-17 21:30N 53°55' W 003°19'817.1
2017-Jul-17 21:00N 53°57' W 003°34'917.2
2017-Jul-17 20:30N 53°60' W 003°47'26 8.0
2017-Jul-17 17:17N 54°09' W 004°28'1 4.5
2017-Jul-17 17:00N 54°09' W 004°26'917.6
2017-Jul-17 16:30N 54°06' W 004°12'817.0
2017-Jul-17 16:00N 54°03' W 003°59'816.6
2017-Jul-17 15:30N 53°60' W 003°46'816.7
2017-Jul-17 15:00N 53°57' W 003°33'1016.1
2017-Jul-17 14:22N 53°56' W 003°15'615.9
2017-Jul-17 13:57N 53°58' W 003°04'2 0.5
2017-Jul-17 11:03N 53°57' W 003°07'117.2
2017-Jul-17 11:00N 53°56' W 003°08'917.4
2017-Jul-17 10:29N 53°55' W 003°24'817.1
2017-Jul-17 10:00N 53°57' W 003°37'30 5.4
2017-Jul-17 04:34N 54°08' W 004°23'617.7
2017-Jul-17 04:14N 54°06' W 004°14'717.3
2017-Jul-17 03:51N 54°04' W 004°04'617.0
2017-Jul-17 03:30N 54°01' W 003°54'1616.6
2017-Jul-17 02:33N 53°56' W 003°29'116.6
2017-Jul-17 02:30N 53°56' W 003°28'916.3
2017-Jul-17 01:56N 53°56' W 003°12'715.5
2017-Jul-17 01:30N 53°58' W 003°02'4 0.9
2017-Jul-16 21:28N 53°57' W 003°07'917.2
2017-Jul-16 20:57N 53°55' W 003°22'716.9
2017-Jul-16 20:30N 53°57' W 003°35'917.1
2017-Jul-16 20:00N 53°60' W 003°48'817.0
2017-Jul-16 19:30N 54°03' W 004°02'16 6.1
2017-Jul-16 16:51N 54°09' W 004°27'2017.2
2017-Jul-16 15:39N 54°02' W 003°55'1216.6
2017-Jul-16 14:57N 53°58' W 003°37'1516.0
2017-Jul-16 14:02N 53°56' W 003°12'016.5
2017-Jul-16 14:00N 53°56' W 003°11'3 0.9
2017-Jul-16 10:38N 53°57' W 003°06'217.1
2017-Jul-16 10:30N 53°56' W 003°10'917.5
2017-Jul-16 10:00N 53°56' W 003°25'1017.0
2017-Jul-16 09:26N 53°58' W 003°40'49 7.8
2017-Jul-16 03:04N 54°31' W 004°43'118.5
2017-Jul-16 03:00N 54°32' W 004°45'918.4
2017-Jul-16 02:31N 54°35' W 004°59'918.4
2017-Jul-16 02:01N 54°39' W 005°14'918.8
2017-Jul-16 01:31N 54°43' W 005°29'917.8
2017-Jul-16 01:01N 54°42' W 005°45'714.2
2017-Jul-16 00:30N 54°37' W 005°54'1 0.8
2017-Jul-15 23:47N 54°37' W 005°55'0 0.0
2017-Jul-15 23:30N 54°37' W 005°55'4 7.0
2017-Jul-15 23:00N 54°39' W 005°51'815.8
2017-Jul-15 22:30N 54°43' W 005°39'713.9
2017-Jul-15 22:00N 54°40' W 005°28'816.8
2017-Jul-15 21:30N 54°33' W 005°20'917.1
2017-Jul-15 21:00N 54°26' W 005°13'917.0
2017-Jul-15 20:30N 54°18' W 005°06'917.2
2017-Jul-15 20:00N 54°11' W 004°59'1415.9
2017-Jul-15 19:09N 54°02' W 004°40'5210.2
2017-Jul-15 14:00N 53°56' W 003°12'714.8
2017-Jul-15 13:30N 53°59' W 003°01'4 1.5
2017-Jul-15 10:32N 53°57' W 003°07'117.9
2017-Jul-15 10:29N 53°56' W 003°08'917.9
2017-Jul-15 10:00N 53°55' W 003°23'917.3
2017-Jul-15 09:30N 53°57' W 003°37'29 5.8
2017-Jul-15 04:28N 54°09' W 004°24'1817.7
2017-Jul-15 03:25N 54°01' W 003°55'1117.0
2017-Jul-15 02:47N 53°58' W 003°37'1516.3
2017-Jul-15 01:52N 53°56' W 003°12'615.5
2017-Jul-15 01:30N 53°58' W 003°03'3 0.9
2017-Jul-14 21:41N 53°56' W 003°08'317.8
2017-Jul-14 21:30N 53°56' W 003°14'917.9
2017-Jul-14 21:00N 53°56' W 003°29'37 8.4
2017-Jul-14 16:37N 54°09' W 004°27'216.2
2017-Jul-14 16:30N 54°09' W 004°24'1118.2
2017-Jul-14 15:53N 54°05' W 004°07'717.7
2017-Jul-14 15:30N 54°02' W 003°56'1517.3
2017-Jul-14 14:37N 53°56' W 003°31'1116.8
2017-Jul-14 13:56N 53°56' W 003°12'715.6
2017-Jul-14 13:29N 53°59' W 003°01'5 1.5
2017-Jul-14 10:30N 53°56' W 003°08'1018.4
2017-Jul-14 09:59N 53°56' W 003°24'39 7.2
2017-Jul-14 04:35N 54°09' W 004°26'717.9
2017-Jul-14 04:10N 54°06' W 004°14'2817.6
2017-Jul-14 02:34N 53°56' W 003°29'117.1
2017-Jul-14 02:30N 53°56' W 003°27'917.0
2017-Jul-14 01:58N 53°56' W 003°12'716.0
2017-Jul-14 01:30N 53°59' W 003°01'4 1.1
2017-Jul-13 21:34N 53°56' W 003°07'118.1
2017-Jul-13 21:30N 53°56' W 003°09'918.1
2017-Jul-13 21:01N 53°56' W 003°24'917.5
2017-Jul-13 20:30N 53°58' W 003°38'25 5.9
2017-Jul-13 16:16N 54°07' W 004°18'1118.3
2017-Jul-13 15:40N 54°03' W 004°00'417.6
2017-Jul-13 15:24N 54°01' W 003°53'917.4
2017-Jul-13 14:55N 53°58' W 003°39'717.4
2017-Jul-13 14:30N 53°56' W 003°28'1017.4
2017-Jul-13 13:57N 53°56' W 003°12'12 3.9
2017-Jul-13 10:57N 54°02' W 002°55'818.0
2017-Jul-13 10:29N 53°57' W 003°07'1118.9
2017-Jul-13 09:53N 53°56' W 003°26'718.4
2017-Jul-13 09:30N 53°58' W 003°37'1017.9
2017-Jul-13 08:56N 54°01' W 003°54'21 4.8
2017-Jul-13 04:28N 54°09' W 004°28'817.3
2017-Jul-13 04:00N 54°06' W 004°15'1118.5
2017-Jul-13 03:26N 54°02' W 003°58'1818.2
2017-Jul-13 02:25N 53°56' W 003°29'1018.1
2017-Jul-13 01:52N 53°56' W 003°12'717.4
2017-Jul-13 01:30N 53°58' W 003°02'5 5.1
2017-Jul-13 00:26N 54°02' W 002°55'0 0.0
2017-Jul-12 23:56N 54°02' W 002°55'0 0.1
2017-Jul-12 22:04N 54°02' W 002°55'0 1.2
2017-Jul-12 22:00N 54°02' W 002°55'816.4
2017-Jul-12 21:30N 53°57' W 003°06'918.1
2017-Jul-12 21:00N 53°56' W 003°21'917.6
2017-Jul-12 20:30N 53°57' W 003°36'917.5
2017-Jul-12 20:00N 54°00' W 003°50'817.1
2017-Jul-12 19:31N 54°03' W 004°03'917.1
2017-Jul-12 19:00N 54°06' W 004°17'714.1
2017-Jul-12 18:30N 54°09' W 004°28'0 0.0
2017-Jul-12 17:58N 54°09' W 004°28'0 0.0
2017-Jul-12 17:25N 54°09' W 004°28'0 0.0
2017-Jul-12 16:58N 54°09' W 004°28'2 3.6
2017-Jul-12 16:29N 54°09' W 004°25'918.4
2017-Jul-12 16:00N 54°05' W 004°12'918.2
2017-Jul-12 15:30N 54°02' W 003°57'1618.3
2017-Jul-12 14:37N 53°56' W 003°31'1118.1
2017-Jul-12 13:59N 53°56' W 003°12'3 0.9
2017-Jul-12 10:27N 53°57' W 003°07'919.2
2017-Jul-12 10:00N 53°55' W 003°22'918.4
2017-Jul-12 09:30N 53°58' W 003°37'32 6.4
2017-Jul-12 04:28N 54°09' W 004°28'816.7
2017-Jul-12 04:01N 54°07' W 004°15'1818.5
2017-Jul-12 03:03N 53°60' W 003°47'718.8
2017-Jul-12 02:41N 53°57' W 003°36'518.6
2017-Jul-12 02:26N 53°56' W 003°29'1018.8
2017-Jul-12 01:54N 53°56' W 003°12'718.3
2017-Jul-12 01:31N 53°59' W 003°01'5 1.3
2017-Jul-11 22:05N 54°02' W 002°55'817.3
2017-Jul-11 21:35N 53°57' W 003°07'219.4
2017-Jul-11 21:30N 53°56' W 003°09'1018.3
2017-Jul-11 20:57N 53°56' W 003°26'38 8.3
2017-Jul-11 16:22N 54°09' W 004°28'818.1
2017-Jul-11 15:57N 54°06' W 004°15'1018.6
2017-Jul-11 15:25N 54°02' W 004°00'2218.6
2017-Jul-11 14:16N 53°55' W 003°26'718.9
2017-Jul-11 13:55N 53°56' W 003°15'818.7
2017-Jul-11 13:30N 53°58' W 003°02'5 2.1
2017-Jul-11 10:57N 54°02' W 002°56'819.0
2017-Jul-11 10:30N 53°57' W 003°07'1018.6
2017-Jul-11 09:59N 53°55' W 003°24'917.0
2017-Jul-11 09:26N 53°58' W 003°39'26 4.9
2017-Jul-11 04:06N 54°07' W 004°20'318.6
2017-Jul-11 03:57N 54°06' W 004°15'  

Dump ship's entire track history